sensor_id;sensor_type;location;lat;lon;timestamp;temperature;humidity
41694;DHT22;27377;50.666;9.150;2023-04-29T00:00:58;9.40;99.90
41694;DHT22;27377;50.666;9.150;2023-04-29T00:03:24;9.40;99.90
41694;DHT22;27377;50.666;9.150;2023-04-29T00:05:53;9.30;99.90
41694;DHT22;27377;50.666;9.150;2023-04-29T00:08:19;9.30;99.90
41694;DHT22;27377;50.666;9.150;2023-04-29T00:10:46;9.30;99.90
41694;DHT22;27377;50.666;9.150;2023-04-29T00:13:11;9.30;99.90
41694;DHT22;27377;50.666;9.150;2023-04-29T00:15:37;9.30;99.90
41694;DHT22;27377;50.666;9.150;2023-04-29T00:18:04;9.30;99.90
41694;DHT22;27377;50.666;9.150;2023-04-29T00:20:33;9.30;99.90
41694;DHT22;27377;50.666;9.150;2023-04-29T00:22:59;9.30;99.90
41694;DHT22;27377;50.666;9.150;2023-04-29T00:25:24;9.30;99.90
41694;DHT22;27377;50.666;9.150;2023-04-29T00:27:50;9.30;99.90
41694;DHT22;27377;50.666;9.150;2023-04-29T00:30:16;9.30;99.90
41694;DHT22;27377;50.666;9.150;2023-04-29T00:32:41;9.30;99.90
41694;DHT22;27377;50.666;9.150;2023-04-29T00:35:09;9.20;99.90
41694;DHT22;27377;50.666;9.150;2023-04-29T00:37:35;9.10;99.90
41694;DHT22;27377;50.666;9.150;2023-04-29T00:40:00;9.00;99.90
41694;DHT22;27377;50.666;9.150;2023-04-29T00:42:28;9.00;99.90
41694;DHT22;27377;50.666;9.150;2023-04-29T00:44:53;9.00;99.90
41694;DHT22;27377;50.666;9.150;2023-04-29T00:47:19;8.90;99.90
41694;DHT22;27377;50.666;9.150;2023-04-29T00:49:44;8.90;99.90
41694;DHT22;27377;50.666;9.150;2023-04-29T00:52:11;9.00;99.90
41694;DHT22;27377;50.666;9.150;2023-04-29T00:54:38;9.00;99.90
41694;DHT22;27377;50.666;9.150;2023-04-29T00:57:04;9.00;99.90
41694;DHT22;27377;50.666;9.150;2023-04-29T00:59:31;9.00;99.90
41694;DHT22;27377;50.666;9.150;2023-04-29T01:02:01;9.10;99.90
41694;DHT22;27377;50.666;9.150;2023-04-29T01:04:30;9.10;99.90
41694;DHT22;27377;50.666;9.150;2023-04-29T01:07:08;9.20;99.90
41694;DHT22;27377;50.666;9.150;2023-04-29T01:17:41;9.50;99.90
41694;DHT22;27377;50.666;9.150;2023-04-29T01:20:09;9.50;99.90
41694;DHT22;27377;50.666;9.150;2023-04-29T01:22:35;9.50;99.90
41694;DHT22;27377;50.666;9.150;2023-04-29T01:25:01;9.50;99.90
41694;DHT22;27377;50.666;9.150;2023-04-29T01:36:31;9.50;99.90
41694;DHT22;27377;50.666;9.150;2023-04-29T01:41:43;9.50;99.90
41694;DHT22;27377;50.666;9.150;2023-04-29T01:44:14;9.60;99.90
41694;DHT22;27377;50.666;9.150;2023-04-29T01:46:50;9.60;99.90
41694;DHT22;27377;50.666;9.150;2023-04-29T01:49:35;9.70;99.90
41694;DHT22;27377;50.666;9.150;2023-04-29T01:52:01;9.70;99.90
41694;DHT22;27377;50.666;9.150;2023-04-29T01:54:27;9.80;99.90
41694;DHT22;27377;50.666;9.150;2023-04-29T01:56:53;9.80;99.90
41694;DHT22;27377;50.666;9.150;2023-04-29T01:59:19;9.90;99.90
41694;DHT22;27377;50.666;9.150;2023-04-29T02:01:46;9.90;99.90
41694;DHT22;27377;50.666;9.150;2023-04-29T02:04:11;10.00;99.90
41694;DHT22;27377;50.666;9.150;2023-04-29T02:06:37;10.00;99.90
41694;DHT22;27377;50.666;9.150;2023-04-29T02:09:02;10.10;99.90
41694;DHT22;27377;50.666;9.150;2023-04-29T02:11:28;10.10;99.90
41694;DHT22;27377;50.666;9.150;2023-04-29T02:13:54;10.20;99.90
41694;DHT22;27377;50.666;9.150;2023-04-29T02:16:19;10.20;99.90
41694;DHT22;27377;50.666;9.150;2023-04-29T02:18:45;10.30;99.90
41694;DHT22;27377;50.666;9.150;2023-04-29T02:21:12;10.30;99.90
41694;DHT22;27377;50.666;9.150;2023-04-29T02:23:38;10.30;99.90
41694;DHT22;27377;50.666;9.150;2023-04-29T02:26:03;10.40;99.90
41694;DHT22;27377;50.666;9.150;2023-04-29T02:28:34;10.40;99.90
41694;DHT22;27377;50.666;9.150;2023-04-29T02:30:59;10.40;99.90
41694;DHT22;27377;50.666;9.150;2023-04-29T02:33:25;10.40;99.90
41694;DHT22;27377;50.666;9.150;2023-04-29T02:35:50;10.40;99.90
41694;DHT22;27377;50.666;9.150;2023-04-29T02:38:16;10.40;99.90
41694;DHT22;27377;50.666;9.150;2023-04-29T02:40:42;10.40;99.90
41694;DHT22;27377;50.666;9.150;2023-04-29T02:43:09;10.40;99.90
41694;DHT22;27377;50.666;9.150;2023-04-29T02:45:35;10.30;99.90
41694;DHT22;27377;50.666;9.150;2023-04-29T02:48:00;10.30;99.90
41694;DHT22;27377;50.666;9.150;2023-04-29T02:50:26;10.30;99.90
41694;DHT22;27377;50.666;9.150;2023-04-29T02:52:51;10.30;99.90
41694;DHT22;27377;50.666;9.150;2023-04-29T02:55:17;10.30;99.90
41694;DHT22;27377;50.666;9.150;2023-04-29T02:57:43;10.30;99.90
41694;DHT22;27377;50.666;9.150;2023-04-29T03:00:09;10.30;99.90
41694;DHT22;27377;50.666;9.150;2023-04-29T03:02:35;10.40;99.90
41694;DHT22;27377;50.666;9.150;2023-04-29T03:05:02;10.40;99.90
41694;DHT22;27377;50.666;9.150;2023-04-29T03:07:28;10.30;99.90
41694;DHT22;27377;50.666;9.150;2023-04-29T03:09:54;10.30;99.90
41694;DHT22;27377;50.666;9.150;2023-04-29T03:12:20;10.30;99.90
41694;DHT22;27377;50.666;9.150;2023-04-29T03:14:46;10.30;99.90
41694;DHT22;27377;50.666;9.150;2023-04-29T03:17:12;10.40;99.90
41694;DHT22;27377;50.666;9.150;2023-04-29T03:19:37;10.40;99.90
41694;DHT22;27377;50.666;9.150;2023-04-29T03:22:03;10.40;99.90
41694;DHT22;27377;50.666;9.150;2023-04-29T03:24:28;10.40;99.90
41694;DHT22;27377;50.666;9.150;2023-04-29T03:26:54;10.50;99.90
41694;DHT22;27377;50.666;9.150;2023-04-29T03:29:20;10.50;99.90
41694;DHT22;27377;50.666;9.150;2023-04-29T03:31:45;10.50;99.90
41694;DHT22;27377;50.666;9.150;2023-04-29T03:34:11;10.50;99.90
41694;DHT22;27377;50.666;9.150;2023-04-29T03:36:38;10.50;99.90
41694;DHT22;27377;50.666;9.150;2023-04-29T03:39:04;10.50;99.90
41694;DHT22;27377;50.666;9.150;2023-04-29T03:41:30;10.60;99.90
41694;DHT22;27377;50.666;9.150;2023-04-29T03:43:55;10.60;99.90
41694;DHT22;27377;50.666;9.150;2023-04-29T03:46:25;10.60;99.90
41694;DHT22;27377;50.666;9.150;2023-04-29T03:48:51;10.60;99.90
41694;DHT22;27377;50.666;9.150;2023-04-29T03:51:16;10.70;99.90
41694;DHT22;27377;50.666;9.150;2023-04-29T03:53:43;10.70;99.90
41694;DHT22;27377;50.666;9.150;2023-04-29T03:56:08;10.70;99.90
41694;DHT22;27377;50.666;9.150;2023-04-29T03:58:34;10.70;99.90
41694;DHT22;27377;50.666;9.150;2023-04-29T04:00:59;10.70;99.90
41694;DHT22;27377;50.666;9.150;2023-04-29T04:03:25;10.70;99.90
41694;DHT22;27377;50.666;9.150;2023-04-29T04:05:52;10.70;99.90
41694;DHT22;27377;50.666;9.150;2023-04-29T04:08:17;10.70;99.90
41694;DHT22;27377;50.666;9.150;2023-04-29T04:10:43;10.70;99.90
41694;DHT22;27377;50.666;9.150;2023-04-29T04:13:08;10.70;99.90
41694;DHT22;27377;50.666;9.150;2023-04-29T04:15:34;10.70;99.90
41694;DHT22;27377;50.666;9.150;2023-04-29T04:18:00;10.70;99.90
41694;DHT22;27377;50.666;9.150;2023-04-29T04:20:25;10.70;99.90
41694;DHT22;27377;50.666;9.150;2023-04-29T04:22:51;10.70;99.90
41694;DHT22;27377;50.666;9.150;2023-04-29T04:25:19;10.70;99.90
41694;DHT22;27377;50.666;9.150;2023-04-29T04:27:44;10.70;99.90
41694;DHT22;27377;50.666;9.150;2023-04-29T04:30:10;10.70;99.90
41694;DHT22;27377;50.666;9.150;2023-04-29T04:32:36;10.70;99.90
41694;DHT22;27377;50.666;9.150;2023-04-29T04:35:03;10.70;99.90
41694;DHT22;27377;50.666;9.150;2023-04-29T04:37:29;10.70;99.90
41694;DHT22;27377;50.666;9.150;2023-04-29T04:39:55;10.70;99.90
41694;DHT22;27377;50.666;9.150;2023-04-29T04:42:23;10.70;99.90
41694;DHT22;27377;50.666;9.150;2023-04-29T04:44:49;10.70;99.90
41694;DHT22;27377;50.666;9.150;2023-04-29T04:47:14;10.70;99.90
41694;DHT22;27377;50.666;9.150;2023-04-29T04:49:40;10.80;99.90
41694;DHT22;27377;50.666;9.150;2023-04-29T04:52:05;10.80;99.90
41694;DHT22;27377;50.666;9.150;2023-04-29T04:54:31;10.70;99.90
41694;DHT22;27377;50.666;9.150;2023-04-29T04:56:57;10.70;99.90
41694;DHT22;27377;50.666;9.150;2023-04-29T04:59:23;10.70;99.90
41694;DHT22;27377;50.666;9.150;2023-04-29T05:01:51;10.70;99.90
41694;DHT22;27377;50.666;9.150;2023-04-29T05:04:16;10.70;99.90
41694;DHT22;27377;50.666;9.150;2023-04-29T05:06:41;10.70;99.90
41694;DHT22;27377;50.666;9.150;2023-04-29T05:09:07;10.70;99.90
41694;DHT22;27377;50.666;9.150;2023-04-29T05:11:33;10.70;99.90
41694;DHT22;27377;50.666;9.150;2023-04-29T05:13:58;10.70;99.90
41694;DHT22;27377;50.666;9.150;2023-04-29T05:16:24;10.70;99.90
41694;DHT22;27377;50.666;9.150;2023-04-29T05:18:50;10.70;99.90
41694;DHT22;27377;50.666;9.150;2023-04-29T05:21:15;10.70;99.90
41694;DHT22;27377;50.666;9.150;2023-04-29T05:23:41;10.70;99.90
41694;DHT22;27377;50.666;9.150;2023-04-29T05:26:07;10.70;99.90
41694;DHT22;27377;50.666;9.150;2023-04-29T05:28:33;10.70;99.90
41694;DHT22;27377;50.666;9.150;2023-04-29T05:30:58;10.70;99.90
41694;DHT22;27377;50.666;9.150;2023-04-29T05:33:24;10.70;99.90
41694;DHT22;27377;50.666;9.150;2023-04-29T05:35:49;10.70;99.90
41694;DHT22;27377;50.666;9.150;2023-04-29T05:38:15;10.70;99.90
41694;DHT22;27377;50.666;9.150;2023-04-29T05:40:40;10.70;99.90
41694;DHT22;27377;50.666;9.150;2023-04-29T05:43:07;10.70;99.90
41694;DHT22;27377;50.666;9.150;2023-04-29T05:45:33;10.70;99.90
41694;DHT22;27377;50.666;9.150;2023-04-29T05:47:59;10.70;99.90
41694;DHT22;27377;50.666;9.150;2023-04-29T05:50:24;10.70;99.90
41694;DHT22;27377;50.666;9.150;2023-04-29T05:52:50;10.70;99.90
41694;DHT22;27377;50.666;9.150;2023-04-29T05:55:16;10.70;99.90
41694;DHT22;27377;50.666;9.150;2023-04-29T05:57:42;10.70;99.90
41694;DHT22;27377;50.666;9.150;2023-04-29T06:00:08;10.70;99.90
41694;DHT22;27377;50.666;9.150;2023-04-29T06:02:34;10.70;99.90
41694;DHT22;27377;50.666;9.150;2023-04-29T06:05:00;10.70;99.90
41694;DHT22;27377;50.666;9.150;2023-04-29T06:07:25;10.70;99.90
41694;DHT22;27377;50.666;9.150;2023-04-29T06:09:51;10.70;99.90
41694;DHT22;27377;50.666;9.150;2023-04-29T06:12:17;10.70;99.90
41694;DHT22;27377;50.666;9.150;2023-04-29T06:14:43;10.70;99.90
41694;DHT22;27377;50.666;9.150;2023-04-29T06:17:08;10.70;99.90
41694;DHT22;27377;50.666;9.150;2023-04-29T06:19:34;10.80;99.90
41694;DHT22;27377;50.666;9.150;2023-04-29T06:22:00;10.70;99.90
41694;DHT22;27377;50.666;9.150;2023-04-29T06:24:26;10.80;99.90
41694;DHT22;27377;50.666;9.150;2023-04-29T06:26:51;10.80;99.90
41694;DHT22;27377;50.666;9.150;2023-04-29T06:29:17;10.80;99.90
41694;DHT22;27377;50.666;9.150;2023-04-29T06:31:42;10.80;99.90
41694;DHT22;27377;50.666;9.150;2023-04-29T06:34:08;10.80;99.90
41694;DHT22;27377;50.666;9.150;2023-04-29T06:36:34;10.80;99.90
41694;DHT22;27377;50.666;9.150;2023-04-29T06:39:00;10.80;99.90
41694;DHT22;27377;50.666;9.150;2023-04-29T06:41:26;10.80;99.90
41694;DHT22;27377;50.666;9.150;2023-04-29T06:43:51;10.80;99.90
41694;DHT22;27377;50.666;9.150;2023-04-29T06:46:17;10.80;99.90
41694;DHT22;27377;50.666;9.150;2023-04-29T06:48:43;10.80;99.90
41694;DHT22;27377;50.666;9.150;2023-04-29T06:51:08;10.80;99.90
41694;DHT22;27377;50.666;9.150;2023-04-29T06:53:34;10.80;99.90
41694;DHT22;27377;50.666;9.150;2023-04-29T06:55:59;10.80;99.90
41694;DHT22;27377;50.666;9.150;2023-04-29T06:58:25;10.80;99.90
41694;DHT22;27377;50.666;9.150;2023-04-29T07:00:50;10.70;99.90
41694;DHT22;27377;50.666;9.150;2023-04-29T07:03:17;10.80;99.90
41694;DHT22;27377;50.666;9.150;2023-04-29T07:05:46;10.80;99.90
41694;DHT22;27377;50.666;9.150;2023-04-29T07:08:12;10.80;99.90
41694;DHT22;27377;50.666;9.150;2023-04-29T07:10:37;10.80;99.90
41694;DHT22;27377;50.666;9.150;2023-04-29T07:13:06;10.80;99.90
41694;DHT22;27377;50.666;9.150;2023-04-29T07:15:38;10.70;99.90
41694;DHT22;27377;50.666;9.150;2023-04-29T07:18:04;10.80;99.90
41694;DHT22;27377;50.666;9.150;2023-04-29T07:20:30;10.80;99.90
41694;DHT22;27377;50.666;9.150;2023-04-29T07:22:56;10.80;99.90
41694;DHT22;27377;50.666;9.150;2023-04-29T07:25:21;10.80;99.90
41694;DHT22;27377;50.666;9.150;2023-04-29T07:27:47;10.80;99.90
41694;DHT22;27377;50.666;9.150;2023-04-29T07:30:12;10.80;99.90
41694;DHT22;27377;50.666;9.150;2023-04-29T07:32:38;10.80;99.90
41694;DHT22;27377;50.666;9.150;2023-04-29T07:35:04;10.80;99.90
41694;DHT22;27377;50.666;9.150;2023-04-29T07:37:30;10.80;99.90
41694;DHT22;27377;50.666;9.150;2023-04-29T07:39:55;10.80;99.90
41694;DHT22;27377;50.666;9.150;2023-04-29T07:42:21;10.80;99.90
41694;DHT22;27377;50.666;9.150;2023-04-29T07:44:46;10.80;99.90
41694;DHT22;27377;50.666;9.150;2023-04-29T07:47:12;10.80;99.90
41694;DHT22;27377;50.666;9.150;2023-04-29T07:49:38;10.90;99.90
41694;DHT22;27377;50.666;9.150;2023-04-29T07:52:04;10.90;99.90
41694;DHT22;27377;50.666;9.150;2023-04-29T07:54:30;10.90;99.90
41694;DHT22;27377;50.666;9.150;2023-04-29T07:56:57;11.00;99.90
41694;DHT22;27377;50.666;9.150;2023-04-29T07:59:23;11.00;99.90
41694;DHT22;27377;50.666;9.150;2023-04-29T08:01:48;11.00;99.90
41694;DHT22;27377;50.666;9.150;2023-04-29T08:04:14;11.00;99.90
41694;DHT22;27377;50.666;9.150;2023-04-29T08:06:39;11.10;99.90
41694;DHT22;27377;50.666;9.150;2023-04-29T08:09:06;11.10;99.90
41694;DHT22;27377;50.666;9.150;2023-04-29T08:11:31;11.20;99.90
41694;DHT22;27377;50.666;9.150;2023-04-29T08:13:57;11.20;99.90
41694;DHT22;27377;50.666;9.150;2023-04-29T08:16:24;11.20;99.90
41694;DHT22;27377;50.666;9.150;2023-04-29T08:18:51;11.20;99.90
41694;DHT22;27377;50.666;9.150;2023-04-29T08:21:17;11.30;99.90
41694;DHT22;27377;50.666;9.150;2023-04-29T08:23:43;11.30;99.90
41694;DHT22;27377;50.666;9.150;2023-04-29T08:26:10;11.30;99.90
41694;DHT22;27377;50.666;9.150;2023-04-29T08:28:37;11.30;99.90
41694;DHT22;27377;50.666;9.150;2023-04-29T08:31:03;11.30;99.90
41694;DHT22;27377;50.666;9.150;2023-04-29T08:33:32;11.20;99.90
41694;DHT22;27377;50.666;9.150;2023-04-29T08:35:58;11.20;99.90
41694;DHT22;27377;50.666;9.150;2023-04-29T08:38:28;11.20;99.90
41694;DHT22;27377;50.666;9.150;2023-04-29T08:40:54;11.20;99.90
41694;DHT22;27377;50.666;9.150;2023-04-29T08:43:20;11.20;99.90
41694;DHT22;27377;50.666;9.150;2023-04-29T08:45:47;11.20;99.90
41694;DHT22;27377;50.666;9.150;2023-04-29T08:48:15;11.30;99.90
41694;DHT22;27377;50.666;9.150;2023-04-29T08:50:41;11.30;99.90
41694;DHT22;27377;50.666;9.150;2023-04-29T08:53:08;11.30;99.90
41694;DHT22;27377;50.666;9.150;2023-04-29T08:55:47;11.30;99.90
41694;DHT22;27377;50.666;9.150;2023-04-29T08:58:14;11.30;99.90
41694;DHT22;27377;50.666;9.150;2023-04-29T09:00:41;11.30;99.90
41694;DHT22;27377;50.666;9.150;2023-04-29T09:03:24;11.30;99.90
41694;DHT22;27377;50.666;9.150;2023-04-29T09:05:59;11.30;99.90
41694;DHT22;27377;50.666;9.150;2023-04-29T09:08:26;11.30;99.90
41694;DHT22;27377;50.666;9.150;2023-04-29T09:10:52;11.30;99.90
41694;DHT22;27377;50.666;9.150;2023-04-29T09:13:25;11.30;99.90
41694;DHT22;27377;50.666;9.150;2023-04-29T09:15:51;11.40;99.90
41694;DHT22;27377;50.666;9.150;2023-04-29T09:23:43;11.40;99.90
41694;DHT22;27377;50.666;9.150;2023-04-29T09:26:09;11.40;99.90
41694;DHT22;27377;50.666;9.150;2023-04-29T09:28:34;11.50;99.90
41694;DHT22;27377;50.666;9.150;2023-04-29T09:31:03;11.50;99.90
41694;DHT22;27377;50.666;9.150;2023-04-29T09:33:31;11.50;99.90
41694;DHT22;27377;50.666;9.150;2023-04-29T09:35:57;11.40;99.90
41694;DHT22;27377;50.666;9.150;2023-04-29T09:38:22;11.50;99.90
41694;DHT22;27377;50.666;9.150;2023-04-29T09:40:48;11.50;99.90
41694;DHT22;27377;50.666;9.150;2023-04-29T09:43:15;11.40;99.90
41694;DHT22;27377;50.666;9.150;2023-04-29T09:45:42;11.40;99.90
41694;DHT22;27377;50.666;9.150;2023-04-29T09:48:09;11.40;99.90
41694;DHT22;27377;50.666;9.150;2023-04-29T09:50:36;11.40;99.90
41694;DHT22;27377;50.666;9.150;2023-04-29T09:53:02;11.40;99.90
41694;DHT22;27377;50.666;9.150;2023-04-29T09:55:28;11.40;99.90
41694;DHT22;27377;50.666;9.150;2023-04-29T09:57:54;11.50;99.90
41694;DHT22;27377;50.666;9.150;2023-04-29T10:00:20;11.50;99.90
41694;DHT22;27377;50.666;9.150;2023-04-29T10:02:46;11.40;99.90
41694;DHT22;27377;50.666;9.150;2023-04-29T10:05:13;11.50;99.90
41694;DHT22;27377;50.666;9.150;2023-04-29T10:07:40;11.40;99.90
41694;DHT22;27377;50.666;9.150;2023-04-29T10:10:06;11.40;99.90
41694;DHT22;27377;50.666;9.150;2023-04-29T10:12:36;11.50;99.90
41694;DHT22;27377;50.666;9.150;2023-04-29T10:15:28;11.40;99.90
41694;DHT22;27377;50.666;9.150;2023-04-29T10:18:22;11.40;99.90
41694;DHT22;27377;50.666;9.150;2023-04-29T10:20:49;11.50;99.90
41694;DHT22;27377;50.666;9.150;2023-04-29T10:23:16;11.50;99.90
41694;DHT22;27377;50.666;9.150;2023-04-29T10:25:43;11.50;99.90
41694;DHT22;27377;50.666;9.150;2023-04-29T10:28:13;11.50;99.90
41694;DHT22;27377;50.666;9.150;2023-04-29T10:30:44;11.50;99.90
41694;DHT22;27377;50.666;9.150;2023-04-29T10:33:15;11.50;99.90
41694;DHT22;27377;50.666;9.150;2023-04-29T10:35:42;11.50;99.90
41694;DHT22;27377;50.666;9.150;2023-04-29T10:38:35;11.50;99.90
41694;DHT22;27377;50.666;9.150;2023-04-29T10:41:09;11.50;99.90
41694;DHT22;27377;50.666;9.150;2023-04-29T10:43:39;11.60;99.90
41694;DHT22;27377;50.666;9.150;2023-04-29T10:46:18;11.50;99.90
41694;DHT22;27377;50.666;9.150;2023-04-29T10:48:50;11.50;99.90
41694;DHT22;27377;50.666;9.150;2023-04-29T10:51:31;11.50;99.90
41694;DHT22;27377;50.666;9.150;2023-04-29T10:54:17;11.60;99.90
41694;DHT22;27377;50.666;9.150;2023-04-29T10:56:50;11.60;99.90
41694;DHT22;27377;50.666;9.150;2023-04-29T10:59:20;11.60;99.90
41694;DHT22;27377;50.666;9.150;2023-04-29T11:01:50;11.60;99.90
41694;DHT22;27377;50.666;9.150;2023-04-29T11:04:18;11.70;99.90
41694;DHT22;27377;50.666;9.150;2023-04-29T11:06:54;11.70;99.90
41694;DHT22;27377;50.666;9.150;2023-04-29T11:09:27;11.70;99.90
41694;DHT22;27377;50.666;9.150;2023-04-29T11:12:03;11.70;99.90
41694;DHT22;27377;50.666;9.150;2023-04-29T11:14:40;11.70;99.90
41694;DHT22;27377;50.666;9.150;2023-04-29T11:17:13;11.70;99.90
41694;DHT22;27377;50.666;9.150;2023-04-29T11:25:01;11.70;99.90
41694;DHT22;27377;50.666;9.150;2023-04-29T11:27:38;11.70;99.90
41694;DHT22;27377;50.666;9.150;2023-04-29T11:30:05;11.70;99.90
41694;DHT22;27377;50.666;9.150;2023-04-29T11:32:37;11.80;99.90
41694;DHT22;27377;50.666;9.150;2023-04-29T11:35:17;11.90;99.90
41694;DHT22;27377;50.666;9.150;2023-04-29T11:37:45;11.80;99.90
41694;DHT22;27377;50.666;9.150;2023-04-29T11:40:11;11.80;99.90
41694;DHT22;27377;50.666;9.150;2023-04-29T11:42:45;11.70;99.90
41694;DHT22;27377;50.666;9.150;2023-04-29T11:45:12;11.80;99.90
41694;DHT22;27377;50.666;9.150;2023-04-29T11:47:42;11.80;99.90
41694;DHT22;27377;50.666;9.150;2023-04-29T11:50:09;11.80;99.90
41694;DHT22;27377;50.666;9.150;2023-04-29T11:52:36;11.80;99.90
41694;DHT22;27377;50.666;9.150;2023-04-29T11:55:02;11.80;99.90
41694;DHT22;27377;50.666;9.150;2023-04-29T11:57:28;11.80;99.90
41694;DHT22;27377;50.666;9.150;2023-04-29T11:59:53;11.90;99.90
41694;DHT22;27377;50.666;9.150;2023-04-29T12:02:31;11.90;99.90
41694;DHT22;27377;50.666;9.150;2023-04-29T12:04:57;11.80;99.90
41694;DHT22;27377;50.666;9.150;2023-04-29T12:07:25;11.80;99.90
41694;DHT22;27377;50.666;9.150;2023-04-29T12:09:50;11.80;99.90
41694;DHT22;27377;50.666;9.150;2023-04-29T12:12:16;11.70;99.90
41694;DHT22;27377;50.666;9.150;2023-04-29T12:14:42;11.70;99.90
41694;DHT22;27377;50.666;9.150;2023-04-29T12:17:08;11.70;99.90
41694;DHT22;27377;50.666;9.150;2023-04-29T12:19:34;11.70;99.90
41694;DHT22;27377;50.666;9.150;2023-04-29T12:22:03;11.70;99.90
41694;DHT22;27377;50.666;9.150;2023-04-29T12:24:33;11.70;99.90
41694;DHT22;27377;50.666;9.150;2023-04-29T12:26:59;11.70;99.90
41694;DHT22;27377;50.666;9.150;2023-04-29T12:29:25;11.70;99.90
41694;DHT22;27377;50.666;9.150;2023-04-29T12:31:51;11.60;99.90
41694;DHT22;27377;50.666;9.150;2023-04-29T12:34:23;11.60;99.90
41694;DHT22;27377;50.666;9.150;2023-04-29T12:36:49;11.60;99.90
41694;DHT22;27377;50.666;9.150;2023-04-29T12:39:14;11.60;99.90
41694;DHT22;27377;50.666;9.150;2023-04-29T12:41:41;11.70;99.90
41694;DHT22;27377;50.666;9.150;2023-04-29T12:44:07;11.70;99.90
41694;DHT22;27377;50.666;9.150;2023-04-29T12:46:36;11.80;99.90
41694;DHT22;27377;50.666;9.150;2023-04-29T12:49:03;11.70;99.90
41694;DHT22;27377;50.666;9.150;2023-04-29T12:51:33;11.70;99.90
41694;DHT22;27377;50.666;9.150;2023-04-29T12:54:02;11.80;99.90
41694;DHT22;27377;50.666;9.150;2023-04-29T12:56:29;11.70;99.90
41694;DHT22;27377;50.666;9.150;2023-04-29T12:58:55;11.80;99.90
41694;DHT22;27377;50.666;9.150;2023-04-29T13:01:21;11.70;99.90
41694;DHT22;27377;50.666;9.150;2023-04-29T13:03:46;11.70;99.90
41694;DHT22;27377;50.666;9.150;2023-04-29T13:06:14;11.70;99.90
41694;DHT22;27377;50.666;9.150;2023-04-29T13:08:39;11.70;99.90
41694;DHT22;27377;50.666;9.150;2023-04-29T13:11:06;11.70;99.90
41694;DHT22;27377;50.666;9.150;2023-04-29T13:13:31;11.70;99.90
41694;DHT22;27377;50.666;9.150;2023-04-29T13:15:57;11.70;99.90
41694;DHT22;27377;50.666;9.150;2023-04-29T13:18:24;11.70;99.90
41694;DHT22;27377;50.666;9.150;2023-04-29T13:20:50;11.70;99.90
41694;DHT22;27377;50.666;9.150;2023-04-29T13:23:16;11.60;99.90
41694;DHT22;27377;50.666;9.150;2023-04-29T13:25:42;11.60;99.90
41694;DHT22;27377;50.666;9.150;2023-04-29T13:28:07;11.60;99.90
41694;DHT22;27377;50.666;9.150;2023-04-29T13:30:35;11.60;99.90
41694;DHT22;27377;50.666;9.150;2023-04-29T13:33:01;11.60;99.90
41694;DHT22;27377;50.666;9.150;2023-04-29T13:35:26;11.60;99.90
41694;DHT22;27377;50.666;9.150;2023-04-29T13:37:55;11.70;99.90
41694;DHT22;27377;50.666;9.150;2023-04-29T13:40:21;11.70;99.90
41694;DHT22;27377;50.666;9.150;2023-04-29T13:42:47;11.70;99.90
41694;DHT22;27377;50.666;9.150;2023-04-29T13:45:16;11.80;99.90
41694;DHT22;27377;50.666;9.150;2023-04-29T13:47:42;11.70;99.90
41694;DHT22;27377;50.666;9.150;2023-04-29T13:50:09;11.70;99.90
41694;DHT22;27377;50.666;9.150;2023-04-29T13:52:35;11.70;99.90
41694;DHT22;27377;50.666;9.150;2023-04-29T13:55:00;11.70;99.90
41694;DHT22;27377;50.666;9.150;2023-04-29T13:57:26;11.70;99.90
41694;DHT22;27377;50.666;9.150;2023-04-29T13:59:52;11.60;99.90
41694;DHT22;27377;50.666;9.150;2023-04-29T14:02:20;11.70;99.90
41694;DHT22;27377;50.666;9.150;2023-04-29T14:04:45;11.70;99.90
41694;DHT22;27377;50.666;9.150;2023-04-29T14:07:12;11.70;99.90
41694;DHT22;27377;50.666;9.150;2023-04-29T14:09:38;11.70;99.90
41694;DHT22;27377;50.666;9.150;2023-04-29T14:12:04;11.70;99.90
41694;DHT22;27377;50.666;9.150;2023-04-29T14:14:33;11.70;99.90
41694;DHT22;27377;50.666;9.150;2023-04-29T14:16:59;11.70;99.90
41694;DHT22;27377;50.666;9.150;2023-04-29T14:19:26;11.70;99.90
41694;DHT22;27377;50.666;9.150;2023-04-29T14:21:51;11.80;99.90
41694;DHT22;27377;50.666;9.150;2023-04-29T14:24:17;11.70;99.90
41694;DHT22;27377;50.666;9.150;2023-04-29T14:26:43;11.70;99.90
41694;DHT22;27377;50.666;9.150;2023-04-29T14:29:08;11.70;99.90
41694;DHT22;27377;50.666;9.150;2023-04-29T14:31:35;11.70;99.90
41694;DHT22;27377;50.666;9.150;2023-04-29T14:34:04;11.70;99.90
41694;DHT22;27377;50.666;9.150;2023-04-29T14:36:29;11.70;99.90
41694;DHT22;27377;50.666;9.150;2023-04-29T14:38:57;11.70;99.90
41694;DHT22;27377;50.666;9.150;2023-04-29T14:41:23;11.70;99.90
41694;DHT22;27377;50.666;9.150;2023-04-29T14:43:50;11.70;99.90
41694;DHT22;27377;50.666;9.150;2023-04-29T14:46:16;11.70;99.90
41694;DHT22;27377;50.666;9.150;2023-04-29T14:48:41;11.70;99.90
41694;DHT22;27377;50.666;9.150;2023-04-29T14:51:07;11.70;99.90
41694;DHT22;27377;50.666;9.150;2023-04-29T14:53:33;11.70;99.90
41694;DHT22;27377;50.666;9.150;2023-04-29T14:55:59;11.70;99.90
41694;DHT22;27377;50.666;9.150;2023-04-29T14:58:24;11.70;99.90
41694;DHT22;27377;50.666;9.150;2023-04-29T15:00:50;11.70;99.90
41694;DHT22;27377;50.666;9.150;2023-04-29T15:03:17;11.70;99.90
41694;DHT22;27377;50.666;9.150;2023-04-29T15:05:42;11.70;99.90
41694;DHT22;27377;50.666;9.150;2023-04-29T15:08:09;11.70;99.90
41694;DHT22;27377;50.666;9.150;2023-04-29T15:10:34;11.70;99.90
41694;DHT22;27377;50.666;9.150;2023-04-29T15:13:00;11.70;99.90
41694;DHT22;27377;50.666;9.150;2023-04-29T15:15:26;11.70;99.90
41694;DHT22;27377;50.666;9.150;2023-04-29T15:17:51;11.70;99.90
41694;DHT22;27377;50.666;9.150;2023-04-29T15:20:17;11.60;99.90
41694;DHT22;27377;50.666;9.150;2023-04-29T15:22:43;11.70;99.90
41694;DHT22;27377;50.666;9.150;2023-04-29T15:25:09;11.70;99.90
41694;DHT22;27377;50.666;9.150;2023-04-29T15:27:35;11.60;99.90
41694;DHT22;27377;50.666;9.150;2023-04-29T15:30:02;11.60;99.90
41694;DHT22;27377;50.666;9.150;2023-04-29T15:32:27;11.60;99.90
41694;DHT22;27377;50.666;9.150;2023-04-29T15:35:05;11.70;99.90
41694;DHT22;27377;50.666;9.150;2023-04-29T15:37:31;11.60;99.90
41694;DHT22;27377;50.666;9.150;2023-04-29T15:40:00;11.70;99.90
41694;DHT22;27377;50.666;9.150;2023-04-29T15:42:26;11.70;99.90
41694;DHT22;27377;50.666;9.150;2023-04-29T15:44:52;11.70;99.90
41694;DHT22;27377;50.666;9.150;2023-04-29T15:47:17;11.70;99.90
41694;DHT22;27377;50.666;9.150;2023-04-29T15:49:43;11.70;99.90
41694;DHT22;27377;50.666;9.150;2023-04-29T15:52:09;11.70;99.90
41694;DHT22;27377;50.666;9.150;2023-04-29T15:54:35;11.70;99.90
41694;DHT22;27377;50.666;9.150;2023-04-29T15:57:01;11.70;99.90
41694;DHT22;27377;50.666;9.150;2023-04-29T15:59:30;11.70;99.90
41694;DHT22;27377;50.666;9.150;2023-04-29T16:01:56;11.70;99.90